sensor_id;sensor_type;location;lat;lon;timestamp;P1;durP1;ratioP1;P2;durP2;ratioP2
58017;SDS011;43810;50.860;19.226;2023-09-19T00:02:17;12.32;;;8.25;;
58017;SDS011;43810;50.860;19.226;2023-09-19T00:04:43;13.45;;;7.65;;
58017;SDS011;43810;50.860;19.226;2023-09-19T00:07:09;11.18;;;7.03;;
58017;SDS011;43810;50.860;19.226;2023-09-19T00:09:35;13.70;;;9.57;;
58017;SDS011;43810;50.860;19.226;2023-09-19T00:12:06;10.48;;;7.47;;
58017;SDS011;43810;50.860;19.226;2023-09-19T00:14:34;15.23;;;7.50;;
58017;SDS011;43810;50.860;19.226;2023-09-19T00:17:01;11.57;;;7.93;;
58017;SDS011;43810;50.860;19.226;2023-09-19T00:19:31;12.82;;;7.72;;
58017;SDS011;43810;50.860;19.226;2023-09-19T00:21:58;11.65;;;8.68;;
58017;SDS011;43810;50.860;19.226;2023-09-19T00:24:23;9.60;;;6.20;;
58017;SDS011;43810;50.860;19.226;2023-09-19T00:26:49;10.90;;;6.78;;
58017;SDS011;43810;50.860;19.226;2023-09-19T00:29:16;12.82;;;7.32;;
58017;SDS011;43810;50.860;19.226;2023-09-19T00:31:45;14.50;;;7.43;;
58017;SDS011;43810;50.860;19.226;2023-09-19T00:34:10;15.32;;;8.35;;
58017;SDS011;43810;50.860;19.226;2023-09-19T00:36:37;12.27;;;7.25;;
58017;SDS011;43810;50.860;19.226;2023-09-19T00:39:08;12.60;;;8.10;;
58017;SDS011;43810;50.860;19.226;2023-09-19T00:41:34;11.00;;;7.22;;
58017;SDS011;43810;50.860;19.226;2023-09-19T00:44:03;10.38;;;7.30;;
58017;SDS011;43810;50.860;19.226;2023-09-19T00:46:30;10.07;;;7.32;;
58017;SDS011;43810;50.860;19.226;2023-09-19T00:48:57;13.38;;;7.03;;
58017;SDS011;43810;50.860;19.226;2023-09-19T00:51:25;14.15;;;7.88;;
58017;SDS011;43810;50.860;19.226;2023-09-19T00:53:52;14.40;;;7.43;;
58017;SDS011;43810;50.860;19.226;2023-09-19T00:56:19;13.20;;;7.40;;
58017;SDS011;43810;50.860;19.226;2023-09-19T00:58:46;12.02;;;7.50;;
58017;SDS011;43810;50.860;19.226;2023-09-19T01:01:13;11.30;;;7.45;;
58017;SDS011;43810;50.860;19.226;2023-09-19T01:03:40;10.25;;;6.75;;
58017;SDS011;43810;50.860;19.226;2023-09-19T01:06:07;13.35;;;8.15;;
58017;SDS011;43810;50.860;19.226;2023-09-19T01:08:34;11.25;;;7.05;;
58017;SDS011;43810;50.860;19.226;2023-09-19T01:30:10;11.10;;;7.05;;
58017;SDS011;43810;50.860;19.226;2023-09-19T01:32:39;10.63;;;7.03;;
58017;SDS011;43810;50.860;19.226;2023-09-19T01:35:06;13.82;;;7.07;;
58017;SDS011;43810;50.860;19.226;2023-09-19T01:37:37;14.15;;;7.40;;
58017;SDS011;43810;50.860;19.226;2023-09-19T01:40:04;11.48;;;7.47;;
58017;SDS011;43810;50.860;19.226;2023-09-19T01:51:20;11.93;;;7.50;;
58017;SDS011;43810;50.860;19.226;2023-09-19T01:54:16;15.45;;;7.88;;
58017;SDS011;43810;50.860;19.226;2023-09-19T01:56:48;11.55;;;7.65;;
58017;SDS011;43810;50.860;19.226;2023-09-19T01:59:24;16.20;;;7.75;;
58017;SDS011;43810;50.860;19.226;2023-09-19T02:01:53;11.77;;;7.57;;
58017;SDS011;43810;50.860;19.226;2023-09-19T02:04:21;10.30;;;7.55;;
58017;SDS011;43810;50.860;19.226;2023-09-19T02:06:46;12.48;;;7.25;;
58017;SDS011;43810;50.860;19.226;2023-09-19T02:09:15;12.98;;;8.52;;
58017;SDS011;43810;50.860;19.226;2023-09-19T02:11:41;11.45;;;7.75;;
58017;SDS011;43810;50.860;19.226;2023-09-19T02:14:07;10.90;;;8.45;;
58017;SDS011;43810;50.860;19.226;2023-09-19T02:16:34;11.25;;;7.97;;
58017;SDS011;43810;50.860;19.226;2023-09-19T02:19:00;13.65;;;8.82;;
58017;SDS011;43810;50.860;19.226;2023-09-19T02:21:26;15.40;;;8.48;;
58017;SDS011;43810;50.860;19.226;2023-09-19T02:23:55;14.05;;;8.00;;
58017;SDS011;43810;50.860;19.226;2023-09-19T02:26:21;12.65;;;7.93;;
58017;SDS011;43810;50.860;19.226;2023-09-19T02:28:50;13.32;;;8.02;;
58017;SDS011;43810;50.860;19.226;2023-09-19T02:31:16;13.52;;;7.72;;
58017;SDS011;43810;50.860;19.226;2023-09-19T02:33:44;14.60;;;7.95;;
58017;SDS011;43810;50.860;19.226;2023-09-19T02:36:11;12.90;;;7.95;;
58017;SDS011;43810;50.860;19.226;2023-09-19T02:38:37;9.18;;;7.55;;
58017;SDS011;43810;50.860;19.226;2023-09-19T02:41:03;16.52;;;8.55;;
58017;SDS011;43810;50.860;19.226;2023-09-19T02:43:28;15.65;;;8.80;;
58017;SDS011;43810;50.860;19.226;2023-09-19T02:45:54;13.88;;;8.40;;
58017;SDS011;43810;50.860;19.226;2023-09-19T02:48:20;13.23;;;8.18;;
58017;SDS011;43810;50.860;19.226;2023-09-19T02:50:49;13.38;;;8.23;;
58017;SDS011;43810;50.860;19.226;2023-09-19T02:53:15;15.38;;;8.25;;
58017;SDS011;43810;50.860;19.226;2023-09-19T02:55:41;14.50;;;8.00;;
58017;SDS011;43810;50.860;19.226;2023-09-19T02:58:08;13.05;;;8.45;;
58017;SDS011;43810;50.860;19.226;2023-09-19T03:00:37;15.45;;;8.60;;
58017;SDS011;43810;50.860;19.226;2023-09-19T03:03:03;12.23;;;8.32;;
58017;SDS011;43810;50.860;19.226;2023-09-19T03:05:31;15.43;;;8.27;;
58017;SDS011;43810;50.860;19.226;2023-09-19T03:07:57;14.75;;;7.70;;
58017;SDS011;43810;50.860;19.226;2023-09-19T03:10:25;15.05;;;7.00;;
58017;SDS011;43810;50.860;19.226;2023-09-19T03:12:53;15.75;;;8.18;;
58017;SDS011;43810;50.860;19.226;2023-09-19T03:15:19;13.02;;;8.00;;
58017;SDS011;43810;50.860;19.226;2023-09-19T03:17:45;12.35;;;7.70;;
58017;SDS011;43810;50.860;19.226;2023-09-19T03:20:15;18.05;;;8.65;;
58017;SDS011;43810;50.860;19.226;2023-09-19T03:22:44;11.82;;;7.30;;
58017;SDS011;43810;50.860;19.226;2023-09-19T03:25:11;16.17;;;8.13;;
58017;SDS011;43810;50.860;19.226;2023-09-19T03:27:37;14.85;;;9.10;;
58017;SDS011;43810;50.860;19.226;2023-09-19T03:30:04;12.50;;;7.57;;
58017;SDS011;43810;50.860;19.226;2023-09-19T03:32:36;15.27;;;8.13;;
58017;SDS011;43810;50.860;19.226;2023-09-19T03:35:08;12.95;;;7.88;;
58017;SDS011;43810;50.860;19.226;2023-09-19T03:37:40;12.18;;;7.30;;
58017;SDS011;43810;50.860;19.226;2023-09-19T03:40:07;18.52;;;8.35;;
58017;SDS011;43810;50.860;19.226;2023-09-19T03:42:39;14.20;;;8.23;;
58017;SDS011;43810;50.860;19.226;2023-09-19T03:45:06;16.35;;;8.57;;
58017;SDS011;43810;50.860;19.226;2023-09-19T03:47:35;18.08;;;8.43;;
58017;SDS011;43810;50.860;19.226;2023-09-19T03:50:01;16.42;;;8.25;;
58017;SDS011;43810;50.860;19.226;2023-09-19T03:52:28;12.43;;;7.13;;
58017;SDS011;43810;50.860;19.226;2023-09-19T03:54:54;12.20;;;7.95;;
58017;SDS011;43810;50.860;19.226;2023-09-19T03:57:20;16.35;;;8.40;;
58017;SDS011;43810;50.860;19.226;2023-09-19T03:59:46;13.75;;;7.70;;
58017;SDS011;43810;50.860;19.226;2023-09-19T04:02:13;13.95;;;8.13;;
58017;SDS011;43810;50.860;19.226;2023-09-19T04:04:48;13.40;;;7.75;;
58017;SDS011;43810;50.860;19.226;2023-09-19T04:07:14;16.77;;;7.55;;
58017;SDS011;43810;50.860;19.226;2023-09-19T04:09:40;12.23;;;7.88;;
58017;SDS011;43810;50.860;19.226;2023-09-19T04:12:06;14.15;;;7.07;;
58017;SDS011;43810;50.860;19.226;2023-09-19T04:14:34;14.38;;;8.23;;
58017;SDS011;43810;50.860;19.226;2023-09-19T04:17:00;17.52;;;8.95;;
58017;SDS011;43810;50.860;19.226;2023-09-19T04:19:26;13.27;;;7.93;;
58017;SDS011;43810;50.860;19.226;2023-09-19T04:21:52;13.82;;;8.45;;
58017;SDS011;43810;50.860;19.226;2023-09-19T04:24:17;17.33;;;8.27;;
58017;SDS011;43810;50.860;19.226;2023-09-19T04:26:45;13.30;;;8.15;;
58017;SDS011;43810;50.860;19.226;2023-09-19T04:29:11;14.70;;;7.82;;
58017;SDS011;43810;50.860;19.226;2023-09-19T04:31:39;14.65;;;8.77;;
58017;SDS011;43810;50.860;19.226;2023-09-19T04:34:06;13.30;;;8.00;;
58017;SDS011;43810;50.860;19.226;2023-09-19T04:36:34;11.68;;;7.90;;
58017;SDS011;43810;50.860;19.226;2023-09-19T04:39:02;13.48;;;8.07;;
58017;SDS011;43810;50.860;19.226;2023-09-19T04:41:30;14.70;;;8.95;;
58017;SDS011;43810;50.860;19.226;2023-09-19T04:43:56;18.02;;;8.75;;
58017;SDS011;43810;50.860;19.226;2023-09-19T04:46:22;16.35;;;8.25;;
58017;SDS011;43810;50.860;19.226;2023-09-19T04:48:48;14.73;;;8.55;;
58017;SDS011;43810;50.860;19.226;2023-09-19T04:51:14;18.17;;;9.48;;
58017;SDS011;43810;50.860;19.226;2023-09-19T04:53:40;20.95;;;9.90;;
58017;SDS011;43810;50.860;19.226;2023-09-19T04:56:06;18.52;;;9.93;;
58017;SDS011;43810;50.860;19.226;2023-09-19T04:58:33;18.67;;;10.27;;
58017;SDS011;43810;50.860;19.226;2023-09-19T05:00:59;16.38;;;8.75;;
58017;SDS011;43810;50.860;19.226;2023-09-19T05:03:29;14.18;;;8.38;;
58017;SDS011;43810;50.860;19.226;2023-09-19T05:05:55;17.42;;;9.27;;
58017;SDS011;43810;50.860;19.226;2023-09-19T05:08:21;14.73;;;8.50;;
58017;SDS011;43810;50.860;19.226;2023-09-19T05:10:47;13.48;;;8.20;;
58017;SDS011;43810;50.860;19.226;2023-09-19T05:13:14;19.30;;;9.77;;
58017;SDS011;43810;50.860;19.226;2023-09-19T05:15:40;14.30;;;10.13;;
58017;SDS011;43810;50.860;19.226;2023-09-19T05:18:06;16.98;;;9.63;;
58017;SDS011;43810;50.860;19.226;2023-09-19T05:20:33;16.88;;;9.73;;
58017;SDS011;43810;50.860;19.226;2023-09-19T05:23:01;15.02;;;10.13;;
58017;SDS011;43810;50.860;19.226;2023-09-19T05:25:29;13.70;;;10.23;;
58017;SDS011;43810;50.860;19.226;2023-09-19T05:27:57;15.57;;;10.13;;
58017;SDS011;43810;50.860;19.226;2023-09-19T05:30:27;16.40;;;10.45;;
58017;SDS011;43810;50.860;19.226;2023-09-19T05:32:53;14.93;;;10.15;;
58017;SDS011;43810;50.860;19.226;2023-09-19T05:35:20;19.48;;;11.18;;
58017;SDS011;43810;50.860;19.226;2023-09-19T05:37:47;16.08;;;10.60;;
58017;SDS011;43810;50.860;19.226;2023-09-19T05:40:17;20.23;;;10.88;;
58017;SDS011;43810;50.860;19.226;2023-09-19T05:42:43;25.48;;;13.13;;
58017;SDS011;43810;50.860;19.226;2023-09-19T05:45:09;20.65;;;11.50;;
58017;SDS011;43810;50.860;19.226;2023-09-19T05:47:42;20.70;;;11.52;;
58017;SDS011;43810;50.860;19.226;2023-09-19T05:50:11;17.65;;;11.57;;
58017;SDS011;43810;50.860;19.226;2023-09-19T05:52:37;18.88;;;11.32;;
58017;SDS011;43810;50.860;19.226;2023-09-19T05:55:08;20.67;;;11.80;;
58017;SDS011;43810;50.860;19.226;2023-09-19T05:57:34;21.70;;;11.98;;
58017;SDS011;43810;50.860;19.226;2023-09-19T06:00:00;19.25;;;11.68;;
58017;SDS011;43810;50.860;19.226;2023-09-19T06:02:27;21.42;;;12.38;;
58017;SDS011;43810;50.860;19.226;2023-09-19T06:04:54;19.42;;;10.82;;
58017;SDS011;43810;50.860;19.226;2023-09-19T06:07:21;18.50;;;10.80;;
58017;SDS011;43810;50.860;19.226;2023-09-19T06:09:48;17.15;;;10.93;;
58017;SDS011;43810;50.860;19.226;2023-09-19T06:12:14;14.75;;;10.18;;
58017;SDS011;43810;50.860;19.226;2023-09-19T06:14:43;18.63;;;10.27;;
58017;SDS011;43810;50.860;19.226;2023-09-19T06:17:08;16.08;;;10.23;;
58017;SDS011;43810;50.860;19.226;2023-09-19T06:19:34;15.27;;;10.13;;
58017;SDS011;43810;50.860;19.226;2023-09-19T06:22:00;18.10;;;9.40;;
58017;SDS011;43810;50.860;19.226;2023-09-19T06:24:26;18.50;;;9.40;;
58017;SDS011;43810;50.860;19.226;2023-09-19T06:26:52;21.90;;;10.00;;
58017;SDS011;43810;50.860;19.226;2023-09-19T06:29:19;15.57;;;9.50;;
58017;SDS011;43810;50.860;19.226;2023-09-19T06:31:46;16.25;;;9.35;;
58017;SDS011;43810;50.860;19.226;2023-09-19T06:34:12;14.52;;;8.82;;
58017;SDS011;43810;50.860;19.226;2023-09-19T06:36:40;15.05;;;9.25;;
58017;SDS011;43810;50.860;19.226;2023-09-19T06:39:07;18.20;;;9.25;;
58017;SDS011;43810;50.860;19.226;2023-09-19T06:41:36;18.23;;;10.18;;
58017;SDS011;43810;50.860;19.226;2023-09-19T06:44:05;18.33;;;10.50;;
58017;SDS011;43810;50.860;19.226;2023-09-19T06:46:31;14.27;;;9.00;;
58017;SDS011;43810;50.860;19.226;2023-09-19T06:49:01;16.70;;;10.05;;
58017;SDS011;43810;50.860;19.226;2023-09-19T06:51:31;18.90;;;10.38;;
58017;SDS011;43810;50.860;19.226;2023-09-19T06:53:58;16.65;;;10.23;;
58017;SDS011;43810;50.860;19.226;2023-09-19T06:56:24;22.58;;;11.90;;
58017;SDS011;43810;50.860;19.226;2023-09-19T06:58:51;17.83;;;10.38;;
58017;SDS011;43810;50.860;19.226;2023-09-19T07:01:16;20.30;;;10.30;;
58017;SDS011;43810;50.860;19.226;2023-09-19T07:03:43;21.27;;;10.45;;
58017;SDS011;43810;50.860;19.226;2023-09-19T07:06:10;14.63;;;9.77;;
58017;SDS011;43810;50.860;19.226;2023-09-19T07:08:36;14.73;;;9.65;;
58017;SDS011;43810;50.860;19.226;2023-09-19T07:11:03;18.10;;;9.13;;
58017;SDS011;43810;50.860;19.226;2023-09-19T07:13:32;13.73;;;8.95;;
58017;SDS011;43810;50.860;19.226;2023-09-19T07:15:58;18.17;;;8.98;;
58017;SDS011;43810;50.860;19.226;2023-09-19T07:18:25;12.93;;;7.47;;
58017;SDS011;43810;50.860;19.226;2023-09-19T07:20:51;10.20;;;7.03;;
58017;SDS011;43810;50.860;19.226;2023-09-19T07:25:51;13.35;;;7.50;;
58017;SDS011;43810;50.860;19.226;2023-09-19T07:28:17;10.60;;;6.90;;
58017;SDS011;43810;50.860;19.226;2023-09-19T07:30:43;16.20;;;6.90;;
58017;SDS011;43810;50.860;19.226;2023-09-19T07:33:09;12.38;;;7.03;;
58017;SDS011;43810;50.860;19.226;2023-09-19T07:35:38;8.52;;;5.93;;
58017;SDS011;43810;50.860;19.226;2023-09-19T07:38:08;12.85;;;7.03;;
58017;SDS011;43810;50.860;19.226;2023-09-19T07:40:36;10.73;;;6.28;;
58017;SDS011;43810;50.860;19.226;2023-09-19T07:43:02;10.77;;;6.47;;
58017;SDS011;43810;50.860;19.226;2023-09-19T07:45:30;11.80;;;6.38;;
58017;SDS011;43810;50.860;19.226;2023-09-19T07:47:57;10.00;;;6.65;;
58017;SDS011;43810;50.860;19.226;2023-09-19T07:50:23;10.75;;;6.35;;
58017;SDS011;43810;50.860;19.226;2023-09-19T07:52:49;14.45;;;6.45;;
58017;SDS011;43810;50.860;19.226;2023-09-19T07:55:18;11.27;;;5.97;;
58017;SDS011;43810;50.860;19.226;2023-09-19T07:57:48;11.50;;;6.65;;
58017;SDS011;43810;50.860;19.226;2023-09-19T08:00:14;10.18;;;6.38;;
58017;SDS011;43810;50.860;19.226;2023-09-19T08:02:41;12.75;;;6.93;;
58017;SDS011;43810;50.860;19.226;2023-09-19T08:05:07;18.00;;;6.45;;
58017;SDS011;43810;50.860;19.226;2023-09-19T08:07:38;12.18;;;5.40;;
58017;SDS011;43810;50.860;19.226;2023-09-19T08:10:06;8.77;;;5.82;;
58017;SDS011;43810;50.860;19.226;2023-09-19T08:12:34;11.10;;;5.22;;
58017;SDS011;43810;50.860;19.226;2023-09-19T08:15:03;9.48;;;5.13;;
58017;SDS011;43810;50.860;19.226;2023-09-19T08:17:33;13.27;;;4.18;;
58017;SDS011;43810;50.860;19.226;2023-09-19T08:20:00;9.15;;;4.35;;
58017;SDS011;43810;50.860;19.226;2023-09-19T08:22:26;11.90;;;4.57;;
58017;SDS011;43810;50.860;19.226;2023-09-19T08:24:52;8.35;;;4.40;;
58017;SDS011;43810;50.860;19.226;2023-09-19T08:27:18;9.05;;;3.97;;
58017;SDS011;43810;50.860;19.226;2023-09-19T08:29:44;9.85;;;4.25;;
58017;SDS011;43810;50.860;19.226;2023-09-19T08:32:10;6.20;;;3.38;;
58017;SDS011;43810;50.860;19.226;2023-09-19T08:34:36;10.63;;;3.75;;
58017;SDS011;43810;50.860;19.226;2023-09-19T08:37:03;6.13;;;3.72;;
58017;SDS011;43810;50.860;19.226;2023-09-19T08:39:29;5.20;;;3.33;;
58017;SDS011;43810;50.860;19.226;2023-09-19T08:41:57;4.00;;;2.67;;
58017;SDS011;43810;50.860;19.226;2023-09-19T08:44:24;4.85;;;3.08;;
58017;SDS011;43810;50.860;19.226;2023-09-19T08:46:52;7.07;;;3.35;;
58017;SDS011;43810;50.860;19.226;2023-09-19T08:49:24;5.05;;;2.97;;
58017;SDS011;43810;50.860;19.226;2023-09-19T08:52:01;4.00;;;2.92;;
58017;SDS011;43810;50.860;19.226;2023-09-19T08:54:35;9.65;;;4.05;;
58017;SDS011;43810;50.860;19.226;2023-09-19T08:57:07;5.03;;;3.38;;
58017;SDS011;43810;50.860;19.226;2023-09-19T08:59:39;5.28;;;3.22;;
58017;SDS011;43810;50.860;19.226;2023-09-19T09:02:09;4.03;;;3.05;;
58017;SDS011;43810;50.860;19.226;2023-09-19T09:04:38;5.28;;;2.95;;
58017;SDS011;43810;50.860;19.226;2023-09-19T09:07:12;6.10;;;2.95;;
58017;SDS011;43810;50.860;19.226;2023-09-19T09:09:39;3.55;;;2.58;;
58017;SDS011;43810;50.860;19.226;2023-09-19T09:12:16;4.65;;;2.40;;
58017;SDS011;43810;50.860;19.226;2023-09-19T09:14:45;7.82;;;3.40;;
58017;SDS011;43810;50.860;19.226;2023-09-19T09:17:15;5.97;;;3.72;;
58017;SDS011;43810;50.860;19.226;2023-09-19T09:19:48;5.22;;;2.30;;
58017;SDS011;43810;50.860;19.226;2023-09-19T09:22:14;5.00;;;2.40;;
58017;SDS011;43810;50.860;19.226;2023-09-19T09:24:54;9.85;;;3.10;;
58017;SDS011;43810;50.860;19.226;2023-09-19T09:27:24;5.68;;;2.75;;
58017;SDS011;43810;50.860;19.226;2023-09-19T09:29:51;4.47;;;2.33;;
58017;SDS011;43810;50.860;19.226;2023-09-19T09:32:22;2.72;;;1.92;;
58017;SDS011;43810;50.860;19.226;2023-09-19T09:34:57;4.97;;;2.00;;
58017;SDS011;43810;50.860;19.226;2023-09-19T09:37:25;4.65;;;1.70;;
58017;SDS011;43810;50.860;19.226;2023-09-19T09:40:02;4.15;;;1.75;;
58017;SDS011;43810;50.860;19.226;2023-09-19T09:42:41;2.03;;;1.65;;
58017;SDS011;43810;50.860;19.226;2023-09-19T09:47:46;2.03;;;1.58;;
58017;SDS011;43810;50.860;19.226;2023-09-19T09:50:24;3.05;;;1.75;;
58017;SDS011;43810;50.860;19.226;2023-09-19T09:53:03;4.90;;;1.45;;
58017;SDS011;43810;50.860;19.226;2023-09-19T09:56:19;5.47;;;1.73;;
58017;SDS011;43810;50.860;19.226;2023-09-19T09:58:26;2.38;;;1.55;;
58017;SDS011;43810;50.860;19.226;2023-09-19T10:00:58;4.35;;;2.53;;
58017;SDS011;43810;50.860;19.226;2023-09-19T10:03:31;3.47;;;1.65;;
58017;SDS011;43810;50.860;19.226;2023-09-19T10:05:58;2.17;;;1.45;;
58017;SDS011;43810;50.860;19.226;2023-09-19T10:08:25;3.92;;;1.75;;
58017;SDS011;43810;50.860;19.226;2023-09-19T10:10:56;3.03;;;1.30;;
58017;SDS011;43810;50.860;19.226;2023-09-19T10:13:30;1.80;;;1.70;;
58017;SDS011;43810;50.860;19.226;2023-09-19T10:15:58;2.88;;;1.70;;
58017;SDS011;43810;50.860;19.226;2023-09-19T10:18:25;4.72;;;1.65;;
58017;SDS011;43810;50.860;19.226;2023-09-19T10:20:53;4.45;;;1.70;;
58017;SDS011;43810;50.860;19.226;2023-09-19T10:23:20;2.83;;;1.48;;
58017;SDS011;43810;50.860;19.226;2023-09-19T10:25:51;1.95;;;1.70;;
58017;SDS011;43810;50.860;19.226;2023-09-19T10:28:18;3.10;;;1.85;;
58017;SDS011;43810;50.860;19.226;2023-09-19T10:30:48;2.33;;;1.95;;
58017;SDS011;43810;50.860;19.226;2023-09-19T10:33:16;6.30;;;1.92;;
58017;SDS011;43810;50.860;19.226;2023-09-19T10:35:46;3.33;;;1.42;;
58017;SDS011;43810;50.860;19.226;2023-09-19T10:38:15;2.30;;;1.83;;
58017;SDS011;43810;50.860;19.226;2023-09-19T10:40:49;4.43;;;2.22;;
58017;SDS011;43810;50.860;19.226;2023-09-19T10:43:18;3.80;;;1.95;;
58017;SDS011;43810;50.860;19.226;2023-09-19T10:45:46;10.48;;;2.28;;
58017;SDS011;43810;50.860;19.226;2023-09-19T10:48:16;4.50;;;2.10;;
58017;SDS011;43810;50.860;19.226;2023-09-19T10:53:14;1.85;;;1.75;;
58017;SDS011;43810;50.860;19.226;2023-09-19T10:55:48;2.13;;;1.73;;
58017;SDS011;43810;50.860;19.226;2023-09-19T10:58:29;4.10;;;2.00;;
58017;SDS011;43810;50.860;19.226;2023-09-19T11:01:02;2.97;;;1.98;;
58017;SDS011;43810;50.860;19.226;2023-09-19T11:03:40;2.40;;;2.20;;
58017;SDS011;43810;50.860;19.226;2023-09-19T11:08:57;3.90;;;2.80;;
58017;SDS011;43810;50.860;19.226;2023-09-19T11:11:50;4.82;;;2.40;;
58017;SDS011;43810;50.860;19.226;2023-09-19T11:30:35;7.25;;;4.03;;
58017;SDS011;43810;50.860;19.226;2023-09-19T11:36:06;7.55;;;4.57;;
58017;SDS011;43810;50.860;19.226;2023-09-19T11:43:45;12.55;;;5.30;;
58017;SDS011;43810;50.860;19.226;2023-09-19T11:46:12;11.02;;;5.38;;
58017;SDS011;43810;50.860;19.226;2023-09-19T11:48:42;7.70;;;5.30;;
58017;SDS011;43810;50.860;19.226;2023-09-19T11:51:13;11.93;;;5.43;;
58017;SDS011;43810;50.860;19.226;2023-09-19T11:53:48;10.68;;;5.75;;
58017;SDS011;43810;50.860;19.226;2023-09-19T11:56:16;8.75;;;5.88;;
58017;SDS011;43810;50.860;19.226;2023-09-19T11:58:45;11.38;;;5.97;;
58017;SDS011;43810;50.860;19.226;2023-09-19T12:01:14;10.80;;;6.45;;
58017;SDS011;43810;50.860;19.226;2023-09-19T12:03:47;9.25;;;5.95;;
58017;SDS011;43810;50.860;19.226;2023-09-19T12:06:18;11.00;;;6.28;;
58017;SDS011;43810;50.860;19.226;2023-09-19T12:08:44;8.50;;;5.97;;
58017;SDS011;43810;50.860;19.226;2023-09-19T12:11:13;11.88;;;6.53;;
58017;SDS011;43810;50.860;19.226;2023-09-19T12:13:44;13.95;;;7.13;;
58017;SDS011;43810;50.860;19.226;2023-09-19T12:16:20;8.38;;;5.85;;
58017;SDS011;43810;50.860;19.226;2023-09-19T12:18:50;12.95;;;6.05;;
58017;SDS011;43810;50.860;19.226;2023-09-19T12:21:23;8.77;;;5.75;;
58017;SDS011;43810;50.860;19.226;2023-09-19T12:26:44;7.57;;;5.00;;
58017;SDS011;43810;50.860;19.226;2023-09-19T12:29:13;6.90;;;4.78;;
58017;SDS011;43810;50.860;19.226;2023-09-19T12:31:47;9.57;;;5.25;;
58017;SDS011;43810;50.860;19.226;2023-09-19T12:34:16;5.95;;;4.18;;
58017;SDS011;43810;50.860;19.226;2023-09-19T12:36:47;7.55;;;4.47;;
58017;SDS011;43810;50.860;19.226;2023-09-19T12:39:22;6.72;;;4.18;;
58017;SDS011;43810;50.860;19.226;2023-09-19T12:41:50;4.55;;;3.72;;
58017;SDS011;43810;50.860;19.226;2023-09-19T12:44:17;6.65;;;3.83;;
58017;SDS011;43810;50.860;19.226;2023-09-19T12:46:44;5.93;;;3.67;;
58017;SDS011;43810;50.860;19.226;2023-09-19T12:49:17;6.35;;;4.13;;
58017;SDS011;43810;50.860;19.226;2023-09-19T12:51:45;8.15;;;3.88;;
58017;SDS011;43810;50.860;19.226;2023-09-19T12:54:12;8.70;;;3.60;;
58017;SDS011;43810;50.860;19.226;2023-09-19T12:56:41;6.50;;;4.10;;
58017;SDS011;43810;50.860;19.226;2023-09-19T12:59:13;6.63;;;3.30;;
58017;SDS011;43810;50.860;19.226;2023-09-19T13:01:41;6.95;;;3.53;;
58017;SDS011;43810;50.860;19.226;2023-09-19T13:04:19;4.63;;;3.72;;
58017;SDS011;43810;50.860;19.226;2023-09-19T13:06:47;4.28;;;3.85;;
58017;SDS011;43810;50.860;19.226;2023-09-19T13:09:17;7.15;;;3.58;;
58017;SDS011;43810;50.860;19.226;2023-09-19T13:11:46;6.00;;;3.35;;
58017;SDS011;43810;50.860;19.226;2023-09-19T13:16:53;5.57;;;3.28;;
58017;SDS011;43810;50.860;19.226;2023-09-19T13:19:42;4.43;;;3.17;;
58017;SDS011;43810;50.860;19.226;2023-09-19T13:25:20;4.20;;;2.92;;
58017;SDS011;43810;50.860;19.226;2023-09-19T13:27:48;6.15;;;2.65;;
58017;SDS011;43810;50.860;19.226;2023-09-19T13:30:20;5.03;;;2.95;;
58017;SDS011;43810;50.860;19.226;2023-09-19T13:32:46;4.78;;;2.92;;
58017;SDS011;43810;50.860;19.226;2023-09-19T13:35:12;3.25;;;2.60;;
58017;SDS011;43810;50.860;19.226;2023-09-19T13:37:39;5.60;;;2.75;;
58017;SDS011;43810;50.860;19.226;2023-09-19T13:40:12;5.05;;;2.30;;
58017;SDS011;43810;50.860;19.226;2023-09-19T13:42:40;3.25;;;2.33;;
58017;SDS011;43810;50.860;19.226;2023-09-19T13:45:06;3.05;;;2.25;;
58017;SDS011;43810;50.860;19.226;2023-09-19T13:47:33;3.10;;;2.05;;
58017;SDS011;43810;50.860;19.226;2023-09-19T13:50:02;3.17;;;2.00;;
58017;SDS011;43810;50.860;19.226;2023-09-19T13:52:32;2.28;;;2.08;;
58017;SDS011;43810;50.860;19.226;2023-09-19T13:54:58;4.13;;;2.05;;
58017;SDS011;43810;50.860;19.226;2023-09-19T13:57:25;2.45;;;1.85;;
58017;SDS011;43810;50.860;19.226;2023-09-19T13:59:54;2.40;;;1.60;;
58017;SDS011;43810;50.860;19.226;2023-09-19T14:02:23;2.80;;;1.63;;
58017;SDS011;43810;50.860;19.226;2023-09-19T14:04:49;3.63;;;2.08;;
58017;SDS011;43810;50.860;19.226;2023-09-19T14:07:16;3.45;;;1.50;;
58017;SDS011;43810;50.860;19.226;2023-09-19T14:09:43;1.90;;;1.52;;
58017;SDS011;43810;50.860;19.226;2023-09-19T14:12:09;1.63;;;1.30;;
58017;SDS011;43810;50.860;19.226;2023-09-19T14:14:35;2.38;;;1.27;;
58017;SDS011;43810;50.860;19.226;2023-09-19T14:17:03;3.13;;;1.48;;
58017;SDS011;43810;50.860;19.226;2023-09-19T14:19:29;2.47;;;1.50;;
58017;SDS011;43810;50.860;19.226;2023-09-19T14:21:55;2.95;;;1.50;;
58017;SDS011;43810;50.860;19.226;2023-09-19T14:24:22;1.60;;;1.50;;
58017;SDS011;43810;50.860;19.226;2023-09-19T14:26:49;2.08;;;1.40;;
58017;SDS011;43810;50.860;19.226;2023-09-19T14:29:15;3.72;;;1.52;;
58017;SDS011;43810;50.860;19.226;2023-09-19T14:31:41;3.90;;;1.83;;
58017;SDS011;43810;50.860;19.226;2023-09-19T14:34:08;1.50;;;1.40;;
58017;SDS011;43810;50.860;19.226;2023-09-19T14:36:37;4.03;;;1.38;;
58017;SDS011;43810;50.860;19.226;2023-09-19T14:39:06;3.63;;;1.40;;
58017;SDS011;43810;50.860;19.226;2023-09-19T14:41:33;4.00;;;1.30;;
58017;SDS011;43810;50.860;19.226;2023-09-19T14:44:01;1.48;;;1.20;;
58017;SDS011;43810;50.860;19.226;2023-09-19T14:46:28;1.52;;;1.00;;
58017;SDS011;43810;50.860;19.226;2023-09-19T14:48:54;2.85;;;0.95;;
58017;SDS011;43810;50.860;19.226;2023-09-19T14:51:25;1.00;;;0.90;;
58017;SDS011;43810;50.860;19.226;2023-09-19T14:53:51;1.02;;;0.90;;
58017;SDS011;43810;50.860;19.226;2023-09-19T14:56:18;2.00;;;0.93;;
58017;SDS011;43810;50.860;19.226;2023-09-19T14:58:45;3.40;;;1.52;;
58017;SDS011;43810;50.860;19.226;2023-09-19T15:01:13;2.72;;;0.93;;
58017;SDS011;43810;50.860;19.226;2023-09-19T15:03:42;1.58;;;1.10;;
58017;SDS011;43810;50.860;19.226;2023-09-19T15:06:09;2.70;;;1.20;;
58017;SDS011;43810;50.860;19.226;2023-09-19T15:08:40;4.30;;;1.23;;
58017;SDS011;43810;50.860;19.226;2023-09-19T15:11:08;1.48;;;0.98;;
58017;SDS011;43810;50.860;19.226;2023-09-19T15:13:36;2.03;;;1.13;;
58017;SDS011;43810;50.860;19.226;2023-09-19T15:16:02;1.67;;;1.20;;
58017;SDS011;43810;50.860;19.226;2023-09-19T15:18:30;5.03;;;1.73;;
58017;SDS011;43810;50.860;19.226;2023-09-19T15:21:06;1.67;;;1.02;;
58017;SDS011;43810;50.860;19.226;2023-09-19T15:23:33;1.38;;;1.20;;
58017;SDS011;43810;50.860;19.226;2023-09-19T15:26:00;1.30;;;1.13;;
58017;SDS011;43810;50.860;19.226;2023-09-19T15:28:27;2.03;;;1.20;;
58017;SDS011;43810;50.860;19.226;2023-09-19T15:30:58;3.35;;;1.27;;
58017;SDS011;43810;50.860;19.226;2023-09-19T15:33:42;1.40;;;1.20;;
58017;SDS011;43810;50.860;19.226;2023-09-19T15:36:11;1.17;;;0.90;;
58017;SDS011;43810;50.860;19.226;2023-09-19T15:41:32;1.25;;;1.15;;
58017;SDS011;43810;50.860;19.226;2023-09-19T15:43:59;1.10;;;1.00;;
58017;SDS011;43810;50.860;19.226;2023-09-19T15:46:29;2.42;;;0.60;;
58017;SDS011;43810;50.860;19.226;2023-09-19T15:48:57;1.45;;;1.13;;